Time;durP1;ratioP1;P1;durP2;ratioP2;P2;SDS_P1;SDS_P2;PMS_P1;PMS_P2;Temp;Humidity;BMP_temperature;BMP_pressure;BME280_temperature;BME280_humidity;BME280_pressure;Samples;Min_cycle;Max_cycle;Signal;HPM_P1;HPM_P2
2022/01/12 00:00:10;;;;;;;192.87;65.27;;;;;;;;;;5029151;28;20107;-66
2022/01/12 00:02:36;;;;;;;177.53;62.87;;;;;;;;;;5029134;28;20056;-66
2022/01/12 00:05:03;;;;;;;192.67;63.67;;;;;;;;;;5012685;28;20052;-67
2022/01/12 00:07:29;;;;;;;236.43;71.90;;;;;;;;;;5030332;28;20413;-66
2022/01/12 00:09:54;;;;;;;282.50;74.43;;;;;;;;;;5011604;28;20045;-67
2022/01/12 00:12:20;;;;;;;213.10;69.60;;;;;;;;;;5029831;28;20389;-67
2022/01/12 00:14:46;;;;;;;356.17;83.80;;;;;;;;;;5028375;28;20052;-67
2022/01/12 00:17:12;;;;;;;294.57;76.10;;;;;;;;;;5029872;28;20123;-67
2022/01/12 00:19:38;;;;;;;354.47;83.73;;;;;;;;;;5029694;28;20423;-66
2022/01/12 00:22:04;;;;;;;298.27;80.10;;;;;;;;;;5028306;28;20122;-67
2022/01/12 00:24:52;;;;;;;312.47;81.07;;;;;;;;;;5029729;28;20052;-66
2022/01/12 00:35:30;;;;;;;230.27;66.93;;;;;;;;;;5028739;28;20053;-66
2022/01/12 00:37:56;;;;;;;316.40;77.70;;;;;;;;;;5028109;28;20046;-66
2022/01/12 00:40:22;;;;;;;331.57;83.03;;;;;;;;;;5029499;28;20041;-67
2022/01/12 00:42:47;;;;;;;244.23;70.30;;;;;;;;;;5028520;28;20042;-66
2022/01/12 00:45:14;;;;;;;268.83;74.87;;;;;;;;;;5029651;28;20198;-66
2022/01/12 00:47:40;;;;;;;240.10;71.83;;;;;;;;;;5029076;28;20503;-67
2022/01/12 00:50:06;;;;;;;279.30;74.10;;;;;;;;;;5027588;28;20052;-66
2022/01/12 00:52:32;;;;;;;227.03;68.13;;;;;;;;;;5011717;28;20056;-66
2022/01/12 00:54:58;;;;;;;240.47;71.10;;;;;;;;;;5027413;28;20064;-66
2022/01/12 00:57:24;;;;;;;247.97;71.07;;;;;;;;;;5028631;28;20128;-66
2022/01/12 00:59:50;;;;;;;260.73;73.30;;;;;;;;;;5028050;28;20049;-66
2022/01/12 01:02:16;;;;;;;254.53;73.13;;;;;;;;;;5029476;28;20187;-66
2022/01/12 01:04:42;;;;;;;305.70;78.03;;;;;;;;;;5027801;28;20052;-66
2022/01/12 01:07:08;;;;;;;281.37;73.50;;;;;;;;;;5028938;28;20065;-66
2022/01/12 01:09:37;;;;;;;262.03;74.13;;;;;;;;;;5027784;28;20106;-66
2022/01/12 01:12:03;;;;;;;304.10;77.33;;;;;;;;;;5027692;28;20103;-66
2022/01/12 01:15:01;;;;;;;321.17;76.90;;;;;;;;;;5027793;28;20178;-66
2022/01/12 01:26:17;;;;;;;266.60;70.37;;;;;;;;;;5016789;28;20057;-66
2022/01/12 01:28:43;;;;;;;235.10;67.10;;;;;;;;;;5006527;28;20049;-66
2022/01/12 01:31:09;;;;;;;296.17;75.13;;;;;;;;;;5007467;28;20050;-66
2022/01/12 01:33:35;;;;;;;272.23;71.83;;;;;;;;;;5019206;28;20140;-66
2022/01/12 01:36:01;;;;;;;282.83;72.37;;;;;;;;;;5028851;28;20045;-66
2022/01/12 01:38:27;;;;;;;265.87;71.43;;;;;;;;;;5028432;28;20098;-66
2022/01/12 01:40:53;;;;;;;311.40;76.30;;;;;;;;;;5029030;28;20411;-66
2022/01/12 01:43:38;;;;;;;280.03;75.07;;;;;;;;;;5028992;28;20060;-66
2022/01/12 01:54:19;;;;;;;338.30;80.30;;;;;;;;;;5032657;28;20049;-66
2022/01/12 01:56:45;;;;;;;377.17;83.17;;;;;;;;;;5032324;28;20081;-66
2022/01/12 01:59:11;;;;;;;366.87;85.17;;;;;;;;;;5032300;28;20047;-66
2022/01/12 02:01:37;;;;;;;390.97;89.50;;;;;;;;;;5032638;28;20053;-66
2022/01/12 02:04:04;;;;;;;449.37;95.73;;;;;;;;;;5031640;28;20053;-66
2022/01/12 02:06:30;;;;;;;422.77;88.23;;;;;;;;;;5032588;28;20064;-66
2022/01/12 02:08:56;;;;;;;447.40;95.90;;;;;;;;;;5032476;28;20053;-67
2022/01/12 02:11:26;;;;;;;440.47;92.80;;;;;;;;;;5032211;28;20072;-67
2022/01/12 02:13:52;;;;;;;438.27;97.00;;;;;;;;;;5032461;28;20049;-66
2022/01/12 02:16:23;;;;;;;510.23;101.77;;;;;;;;;;5032330;28;20058;-67
2022/01/12 02:19:16;;;;;;;589.37;110.77;;;;;;;;;;5032027;28;20163;-66
2022/01/12 02:40:31;;;;;;;486.37;95.70;;;;;;;;;;5031848;28;20049;-66
2022/01/12 02:43:11;;;;;;;499.20;97.00;;;;;;;;;;5031630;28;20113;-66
2022/01/12 02:51:17;;;;;;;511.17;97.17;;;;;;;;;;5031622;28;20426;-66
2022/01/12 02:53:44;;;;;;;581.33;105.90;;;;;;;;;;5031151;28;20049;-66
2022/01/12 02:56:12;;;;;;;459.87;92.67;;;;;;;;;;5031000;28;20041;-67
2022/01/12 02:58:39;;;;;;;625.93;111.10;;;;;;;;;;5031330;28;20146;-66
2022/01/12 03:03:39;;;;;;;;;;;;;;;;;;5031218;28;20180;-66
2022/01/12 03:06:07;;;;;;;566.10;104.87;;;;;;;;;;5030327;28;19995;-66
2022/01/12 03:08:37;;;;;;;691.87;121.53;;;;;;;;;;5030024;28;20514;-67
2022/01/12 03:11:05;;;;;;;632.77;115.37;;;;;;;;;;5031217;28;20046;-66
2022/01/12 03:13:30;;;;;;;665.03;117.10;;;;;;;;;;5029816;28;20422;-66
2022/01/12 03:15:57;;;;;;;757.23;126.60;;;;;;;;;;5029467;28;20050;-67
2022/01/12 03:18:23;;;;;;;672.23;113.83;;;;;;;;;;5029439;28;20519;-67
2022/01/12 03:20:49;;;;;;;574.57;107.47;;;;;;;;;;5030972;28;20156;-66
2022/01/12 03:23:15;;;;;;;657.00;112.93;;;;;;;;;;5031049;28;20045;-67
2022/01/12 03:25:42;;;;;;;666.70;114.97;;;;;;;;;;5030717;28;20091;-66
2022/01/12 03:28:08;;;;;;;722.03;125.13;;;;;;;;;;5012957;28;20044;-66
2022/01/12 03:30:52;;;;;;;616.33;110.43;;;;;;;;;;5029125;28;20053;-66
2022/01/12 03:33:34;;;;;;;762.58;119.97;;;;;;;;;;5029933;28;20052;-66
2022/01/12 03:38:38;;;;;;;844.80;134.27;;;;;;;;;;5030917;28;20133;-66
2022/01/12 03:41:04;;;;;;;778.30;124.80;;;;;;;;;;5030785;28;20199;-67
2022/01/12 03:43:30;;;;;;;824.43;129.17;;;;;;;;;;5029273;28;20072;-67
2022/01/12 03:45:56;;;;;;;672.10;119.40;;;;;;;;;;5030864;28;20045;-67
2022/01/12 03:48:22;;;;;;;635.30;110.37;;;;;;;;;;5030560;28;20045;-67
2022/01/12 03:50:48;;;;;;;702.37;119.63;;;;;;;;;;5030470;28;20048;-67
2022/01/12 03:53:14;;;;;;;751.97;124.87;;;;;;;;;;5030732;28;20131;-67
2022/01/12 03:55:41;;;;;;;812.83;131.50;;;;;;;;;;5030529;28;20087;-67
2022/01/12 03:58:10;;;;;;;841.60;134.67;;;;;;;;;;5030550;28;20069;-67
2022/01/12 04:00:36;;;;;;;758.80;121.13;;;;;;;;;;5009358;28;20127;-67
2022/01/12 04:03:05;;;;;;;765.17;126.50;;;;;;;;;;5010229;28;20038;-68
2022/01/12 04:08:19;;;;;;;715.93;120.73;;;;;;;;;;5010670;28;20057;-68
2022/01/12 04:10:45;;;;;;;827.07;132.27;;;;;;;;;;5010352;28;20184;-68
2022/01/12 04:13:11;;;;;;;674.60;113.77;;;;;;;;;;5012123;28;20056;-67
2022/01/12 04:15:37;;;;;;;699.43;116.50;;;;;;;;;;5028480;28;20054;-67
2022/01/12 04:18:03;;;;;;;705.10;118.60;;;;;;;;;;5029517;28;20068;-67
2022/01/12 04:20:29;;;;;;;635.43;113.47;;;;;;;;;;5029061;28;20056;-68
2022/01/12 04:25:40;;;;;;;572.13;104.27;;;;;;;;;;5028378;28;20049;-67
2022/01/12 04:28:06;;;;;;;724.07;117.10;;;;;;;;;;5029599;28;20038;-68
2022/01/12 04:30:32;;;;;;;741.60;123.57;;;;;;;;;;5028385;28;20431;-67
2022/01/12 04:32:58;;;;;;;726.93;117.90;;;;;;;;;;5028712;28;20056;-67
2022/01/12 04:35:29;;;;;;;790.80;123.67;;;;;;;;;;5028490;28;20487;-66
2022/01/12 04:37:55;;;;;;;758.20;123.07;;;;;;;;;;5029826;28;20057;-67
2022/01/12 04:40:21;;;;;;;579.50;104.50;;;;;;;;;;5029326;28;20049;-67
2022/01/12 04:42:47;;;;;;;540.70;98.87;;;;;;;;;;5029294;28;20461;-67
2022/01/12 04:45:38;;;;;;;504.73;94.50;;;;;;;;;;5029656;28;20047;-66
2022/01/12 04:50:42;;;;;;;577.57;102.20;;;;;;;;;;5029263;28;20060;-67
2022/01/12 04:53:08;;;;;;;531.90;99.67;;;;;;;;;;5029066;28;20042;-66
2022/01/12 04:55:34;;;;;;;492.43;93.43;;;;;;;;;;5028820;28;20056;-66
2022/01/12 04:58:00;;;;;;;528.50;96.83;;;;;;;;;;5027933;28;20607;-66
2022/01/12 05:00:28;;;;;;;548.80;104.07;;;;;;;;;;5029002;28;20064;-67
2022/01/12 05:13:39;;;;;;;455.70;84.90;;;;;;;;;;5029005;28;20129;-67
2022/01/12 05:16:05;;;;;;;444.77;85.47;;;;;;;;;;5032602;28;20522;-67
2022/01/12 05:18:33;;;;;;;462.33;84.13;;;;;;;;;;5038050;28;20542;-66
2022/01/12 05:20:59;;;;;;;389.47;77.83;;;;;;;;;;5036521;28;20045;-68
2022/01/12 05:23:25;;;;;;;419.27;79.13;;;;;;;;;;5018887;28;20509;-66
2022/01/12 05:25:52;;;;;;;553.93;95.63;;;;;;;;;;5037685;28;20045;-67
2022/01/12 05:28:18;;;;;;;744.87;116.20;;;;;;;;;;5038481;28;20499;-67
2022/01/12 05:30:45;;;;;;;600.63;102.53;;;;;;;;;;5037398;28;20302;-67
2022/01/12 05:33:11;;;;;;;635.47;107.67;;;;;;;;;;5036606;28;20044;-67
2022/01/12 05:35:37;;;;;;;895.90;129.33;;;;;;;;;;5038599;28;20402;-67
2022/01/12 05:38:04;;;;;;;1091.30;145.97;;;;;;;;;;5035886;28;20156;-67
2022/01/12 05:40:31;;;;;;;1106.50;146.00;;;;;;;;;;5035691;28;20081;-67
2022/01/12 05:43:00;;;;;;;1113.17;142.00;;;;;;;;;;5031766;28;20073;-67
2022/01/12 05:45:26;;;;;;;1229.13;148.07;;;;;;;;;;5030349;28;20037;-67
2022/01/12 05:50:19;;;;;;;1111.77;139.00;;;;;;;;;;5036648;28;20045;-67
2022/01/12 05:52:45;;;;;;;1062.27;133.27;;;;;;;;;;5033155;28;20128;-67
2022/01/12 05:55:11;;;;;;;1085.70;132.93;;;;;;;;;;5036634;28;20178;-67
2022/01/12 05:57:38;;;;;;;988.30;131.53;;;;;;;;;;5042674;28;20041;-67
2022/01/12 06:00:09;;;;;;;1019.07;132.80;;;;;;;;;;5046904;28;20045;-67
2022/01/12 06:02:35;;;;;;;1024.50;129.07;;;;;;;;;;5041411;28;20045;-67
2022/01/12 06:05:01;;;;;;;1043.43;133.33;;;;;;;;;;5038901;28;20280;-67
2022/01/12 06:07:27;;;;;;;941.47;122.43;;;;;;;;;;5038650;28;20558;-67
2022/01/12 06:09:53;;;;;;;862.30;115.70;;;;;;;;;;5034091;28;20056;-68
2022/01/12 06:12:20;;;;;;;920.03;126.17;;;;;;;;;;5028193;28;20050;-67
2022/01/12 06:14:46;;;;;;;754.37;114.63;;;;;;;;;;5028025;28;20581;-67
2022/01/12 06:17:12;;;;;;;521.73;87.97;;;;;;;;;;5028709;28;20089;-67
2022/01/12 06:19:39;;;;;;;451.60;84.93;;;;;;;;;;5027162;28;20132;-67
2022/01/12 06:22:05;;;;;;;298.77;66.00;;;;;;;;;;5027349;28;20795;-67
2022/01/12 06:24:31;;;;;;;428.97;78.50;;;;;;;;;;5025693;28;20081;-67
2022/01/12 06:26:58;;;;;;;288.07;63.40;;;;;;;;;;5027357;28;20511;-67
2022/01/12 06:29:39;;;;;;;326.00;70.27;;;;;;;;;;5033986;28;20051;-68
2022/01/12 06:32:06;;;;;;;331.83;68.33;;;;;;;;;;5036925;28;20832;-67
2022/01/12 06:34:32;;;;;;;325.53;69.70;;;;;;;;;;5031030;28;20045;-67
2022/01/12 06:36:58;;;;;;;318.37;66.60;;;;;;;;;;5032059;28;20281;-67
2022/01/12 06:39:25;;;;;;;362.90;74.23;;;;;;;;;;5013776;28;20323;-67
2022/01/12 06:41:52;;;;;;;336.97;67.27;;;;;;;;;;5031611;28;20054;-68
2022/01/12 06:44:20;;;;;;;335.83;66.70;;;;;;;;;;5032346;28;20037;-67
2022/01/12 06:46:47;;;;;;;422.50;76.03;;;;;;;;;;5031512;28;20326;-67
2022/01/12 06:49:13;;;;;;;280.23;61.83;;;;;;;;;;5032041;28;20048;-67
2022/01/12 06:51:40;;;;;;;346.17;66.60;;;;;;;;;;5030662;28;20116;-67
2022/01/12 06:54:06;;;;;;;240.90;57.53;;;;;;;;;;5030866;28;20037;-67
2022/01/12 06:56:32;;;;;;;398.03;71.80;;;;;;;;;;5031959;28;20495;-67
2022/01/12 06:58:58;;;;;;;296.53;63.50;;;;;;;;;;5030977;28;20053;-67
2022/01/12 07:01:24;;;;;;;202.73;54.07;;;;;;;;;;5042700;28;20295;-68
2022/01/12 07:03:50;;;;;;;265.13;58.93;;;;;;;;;;5050455;28;20048;-67
2022/01/12 07:06:18;;;;;;;276.40;57.37;;;;;;;;;;5049293;28;20129;-67
2022/01/12 07:08:44;;;;;;;237.13;55.13;;;;;;;;;;5030737;28;20049;-67
2022/01/12 07:11:10;;;;;;;236.03;54.97;;;;;;;;;;5031135;28;20505;-67
2022/01/12 07:13:36;;;;;;;234.90;55.73;;;;;;;;;;5030006;28;20397;-67
2022/01/12 07:16:02;;;;;;;235.33;54.50;;;;;;;;;;5031001;28;20518;-67
2022/01/12 07:18:29;;;;;;;234.97;56.77;;;;;;;;;;5029741;28;20323;-67
2022/01/12 07:20:56;;;;;;;376.87;70.53;;;;;;;;;;5027195;28;20049;-67
2022/01/12 07:23:22;;;;;;;294.10;59.10;;;;;;;;;;5030346;28;20041;-67
2022/01/12 07:25:48;;;;;;;423.93;74.50;;;;;;;;;;5029415;28;20406;-67
2022/01/12 07:28:14;;;;;;;317.70;61.30;;;;;;;;;;5029097;28;20567;-67
2022/01/12 07:30:40;;;;;;;493.83;78.83;;;;;;;;;;5034205;28;20503;-67
2022/01/12 07:33:06;;;;;;;338.20;63.47;;;;;;;;;;5019780;28;20091;-67
2022/01/12 07:35:32;;;;;;;417.13;71.87;;;;;;;;;;5038810;28;20042;-68
2022/01/12 07:37:58;;;;;;;306.37;62.17;;;;;;;;;;5036933;28;20053;-67
2022/01/12 07:40:24;;;;;;;369.40;70.73;;;;;;;;;;5034597;28;20132;-66
2022/01/12 07:42:51;;;;;;;313.10;58.17;;;;;;;;;;5035505;28;20081;-67
2022/01/12 07:45:17;;;;;;;456.57;80.87;;;;;;;;;;5030108;28;20049;-66
2022/01/12 07:47:43;;;;;;;550.73;88.80;;;;;;;;;;5029517;28;20837;-67
2022/01/12 07:50:10;;;;;;;427.77;75.83;;;;;;;;;;5030445;28;20300;-66
2022/01/12 07:52:36;;;;;;;514.50;86.90;;;;;;;;;;5030078;28;20276;-67
2022/01/12 07:55:03;;;;;;;523.70;86.03;;;;;;;;;;5028931;28;20349;-67
2022/01/12 07:57:29;;;;;;;381.07;69.80;;;;;;;;;;5034770;28;20364;-67
2022/01/12 07:59:55;;;;;;;526.60;81.27;;;;;;;;;;5040249;28;20287;-67
2022/01/12 08:02:21;;;;;;;613.73;94.93;;;;;;;;;;5038485;28;20292;-67
2022/01/12 08:04:47;;;;;;;578.53;92.40;;;;;;;;;;5028157;28;20291;-67
2022/01/12 08:07:14;;;;;;;370.63;66.13;;;;;;;;;;5023457;28;20295;-66
2022/01/12 08:09:40;;;;;;;613.67;89.17;;;;;;;;;;5028348;28;20571;-68
2022/01/12 08:12:07;;;;;;;622.87;94.87;;;;;;;;;;5028243;28;20351;-69
2022/01/12 08:14:33;;;;;;;541.33;81.30;;;;;;;;;;5030636;28;20288;-66
2022/01/12 08:16:59;;;;;;;778.93;105.17;;;;;;;;;;5038281;28;20296;-67
2022/01/12 08:19:27;;;;;;;596.93;85.23;;;;;;;;;;5040929;28;20334;-67
2022/01/12 08:21:53;;;;;;;800.10;109.43;;;;;;;;;;5038104;28;20291;-66
2022/01/12 08:24:19;;;;;;;733.20;103.77;;;;;;;;;;5048583;28;20284;-67
2022/01/12 08:26:45;;;;;;;757.33;103.43;;;;;;;;;;5042675;28;20781;-67
2022/01/12 08:29:14;;;;;;;859.63;110.00;;;;;;;;;;5029708;28;20343;-66
2022/01/12 08:31:41;;;;;;;833.77;108.43;;;;;;;;;;5029802;28;20288;-66
2022/01/12 08:34:07;;;;;;;1018.93;130.70;;;;;;;;;;5029234;28;20307;-66
2022/01/12 08:36:33;;;;;;;796.33;110.70;;;;;;;;;;5028442;28;20358;-66
2022/01/12 08:39:01;;;;;;;735.43;100.43;;;;;;;;;;5029519;28;20284;-67
2022/01/12 08:41:27;;;;;;;583.23;94.03;;;;;;;;;;5031449;28;20292;-67
2022/01/12 08:43:53;;;;;;;538.73;84.70;;;;;;;;;;5036540;28;20071;-66
2022/01/12 08:46:19;;;;;;;653.20;94.03;;;;;;;;;;5028182;28;20372;-67
2022/01/12 08:48:46;;;;;;;534.73;86.37;;;;;;;;;;5029538;28;20099;-67
2022/01/12 08:51:12;;;;;;;431.53;74.00;;;;;;;;;;5027682;28;20057;-68
2022/01/12 08:53:38;;;;;;;395.27;68.80;;;;;;;;;;5029199;28;20041;-66
2022/01/12 08:56:04;;;;;;;336.43;62.83;;;;;;;;;;5028929;28;20042;-67
2022/01/12 08:58:30;;;;;;;299.10;58.40;;;;;;;;;;5026719;28;20104;-66
2022/01/12 09:01:00;;;;;;;266.37;56.73;;;;;;;;;;5028062;28;20085;-67
2022/01/12 09:03:26;;;;;;;240.90;53.77;;;;;;;;;;5028964;28;20117;-67
2022/01/12 09:05:52;;;;;;;244.97;53.27;;;;;;;;;;5029029;28;20179;-67
2022/01/12 09:08:18;;;;;;;201.50;51.27;;;;;;;;;;5028424;28;20506;-67
2022/01/12 09:10:44;;;;;;;292.50;60.67;;;;;;;;;;5027241;28;20191;-66
2022/01/12 09:13:10;;;;;;;345.80;64.30;;;;;;;;;;5029001;28;20129;-67
2022/01/12 09:15:36;;;;;;;244.77;51.47;;;;;;;;;;5028344;28;20209;-67
2022/01/12 09:18:02;;;;;;;223.10;50.80;;;;;;;;;;5028266;28;20509;-67
2022/01/12 09:20:28;;;;;;;302.30;57.00;;;;;;;;;;5028606;28;20098;-67
2022/01/12 09:22:54;;;;;;;202.90;48.63;;;;;;;;;;5028326;28;20044;-66
2022/01/12 09:25:20;;;;;;;181.70;45.43;;;;;;;;;;5028323;28;20049;-67
2022/01/12 09:27:47;;;;;;;159.63;41.93;;;;;;;;;;5028470;28;20046;-66
2022/01/12 09:30:14;;;;;;;178.23;43.97;;;;;;;;;;5028546;28;20168;-67
2022/01/12 09:32:41;;;;;;;196.80;45.37;;;;;;;;;;5028754;28;20467;-67
2022/01/12 09:35:07;;;;;;;172.60;39.23;;;;;;;;;;5028240;28;20128;-67
2022/01/12 09:37:33;;;;;;;192.33;43.73;;;;;;;;;;5027034;28;20733;-67
2022/01/12 09:39:59;;;;;;;153.97;42.17;;;;;;;;;;5027850;28;20053;-66
2022/01/12 09:42:25;;;;;;;148.63;38.23;;;;;;;;;;5028551;28;20061;-67
2022/01/12 09:44:51;;;;;;;144.87;36.47;;;;;;;;;;5028406;28;20511;-67
2022/01/12 09:47:18;;;;;;;144.20;36.60;;;;;;;;;;5028480;28;20060;-67
2022/01/12 09:49:46;;;;;;;123.03;34.43;;;;;;;;;;5027571;28;20045;-66
2022/01/12 09:52:12;;;;;;;126.87;33.10;;;;;;;;;;5027051;28;20107;-66
2022/01/12 09:54:38;;;;;;;116.53;33.80;;;;;;;;;;5028169;28;20049;-67
2022/01/12 09:57:04;;;;;;;132.73;37.00;;;;;;;;;;5028364;28;20168;-67
2022/01/12 09:59:31;;;;;;;132.43;34.43;;;;;;;;;;5026771;28;20519;-67
2022/01/12 10:01:57;;;;;;;136.67;36.17;;;;;;;;;;5028437;28;20033;-67
2022/01/12 10:04:25;;;;;;;138.77;35.63;;;;;;;;;;5028289;28;20061;-66
2022/01/12 10:06:53;;;;;;;152.17;38.33;;;;;;;;;;5028505;28;20053;-67
2022/01/12 10:09:33;;;;;;;127.33;32.77;;;;;;;;;;5027161;28;20499;-67
2022/01/12 10:12:00;;;;;;;141.70;33.47;;;;;;;;;;5012467;28;20054;-67
2022/01/12 10:14:37;;;;;;;152.33;35.50;;;;;;;;;;5010524;28;20064;-67
2022/01/12 10:17:03;;;;;;;105.00;29.20;;;;;;;;;;5012465;28;20049;-67
2022/01/12 10:19:31;;;;;;;94.37;29.10;;;;;;;;;;5012223;28;20064;-66
2022/01/12 10:21:58;;;;;;;102.47;27.63;;;;;;;;;;5011734;28;20038;-66
2022/01/12 10:24:24;;;;;;;151.27;33.30;;;;;;;;;;5025445;28;20049;-67
2022/01/12 10:26:51;;;;;;;132.30;31.30;;;;;;;;;;5030472;28;20056;-67
2022/01/12 10:29:22;;;;;;;116.97;30.07;;;;;;;;;;5031738;28;20049;-67
2022/01/12 10:31:57;;;;;;;126.97;33.30;;;;;;;;;;5030612;28;20136;-67
2022/01/12 10:34:24;;;;;;;114.07;29.43;;;;;;;;;;5030545;28;20512;-68
2022/01/12 10:36:51;;;;;;;125.60;31.73;;;;;;;;;;5031241;28;20134;-68
2022/01/12 10:39:17;;;;;;;122.20;31.13;;;;;;;;;;5029571;28;20099;-68
2022/01/12 10:41:54;;;;;;;135.30;31.97;;;;;;;;;;5031611;28;20553;-68
2022/01/12 10:44:24;;;;;;;112.63;28.20;;;;;;;;;;5031132;28;20045;-67
2022/01/12 10:46:50;;;;;;;98.20;25.90;;;;;;;;;;5031488;28;20045;-68
2022/01/12 10:49:20;;;;;;;103.07;26.03;;;;;;;;;;5031416;28;20060;-68
2022/01/12 10:51:54;;;;;;;106.60;25.87;;;;;;;;;;5031468;28;20045;-68
2022/01/12 10:54:20;;;;;;;97.33;23.33;;;;;;;;;;5031200;28;20041;-68
2022/01/12 10:56:46;;;;;;;108.30;27.30;;;;;;;;;;5031450;28;20891;-69
2022/01/12 10:59:20;;;;;;;104.63;24.20;;;;;;;;;;5030071;28;20138;-68
2022/01/12 11:01:46;;;;;;;101.07;25.13;;;;;;;;;;5029891;28;20456;-68
2022/01/12 11:04:12;;;;;;;76.27;21.83;;;;;;;;;;5031333;28;20123;-69
2022/01/12 11:06:39;;;;;;;84.83;23.43;;;;;;;;;;5031318;28;20033;-69
2022/01/12 11:09:05;;;;;;;80.00;20.90;;;;;;;;;;5031229;28;20053;-68
2022/01/12 11:11:31;;;;;;;75.60;21.23;;;;;;;;;;5030749;28;20499;-68
2022/01/12 11:13:58;;;;;;;81.73;20.63;;;;;;;;;;5030754;28;20554;-68
2022/01/12 11:16:25;;;;;;;82.53;23.60;;;;;;;;;;5031555;28;20053;-68
2022/01/12 11:18:54;;;;;;;59.77;18.40;;;;;;;;;;5030953;28;20061;-68
2022/01/12 11:21:22;;;;;;;98.83;22.70;;;;;;;;;;5028664;28;20087;-68
2022/01/12 11:23:50;;;;;;;66.90;19.90;;;;;;;;;;5030649;28;20053;-68
2022/01/12 11:26:16;;;;;;;73.87;18.97;;;;;;;;;;5029473;28;20531;-68
2022/01/12 11:28:42;;;;;;;72.43;18.93;;;;;;;;;;5030437;28;20038;-68
2022/01/12 11:31:09;;;;;;;62.70;19.33;;;;;;;;;;5030937;28;20052;-69
2022/01/12 11:33:35;;;;;;;76.63;20.83;;;;;;;;;;5029510;28;20394;-69
2022/01/12 11:36:15;;;;;;;73.03;21.70;;;;;;;;;;5028735;28;20183;-69
2022/01/12 11:38:47;;;;;;;70.77;18.13;;;;;;;;;;5013071;28;20500;-68
2022/01/12 11:41:21;;;;;;;64.80;17.40;;;;;;;;;;5028920;28;20076;-68
2022/01/12 11:43:50;;;;;;;68.63;18.13;;;;;;;;;;5030639;28;20128;-68
2022/01/12 11:46:21;;;;;;;82.97;19.97;;;;;;;;;;5028813;28;20120;-69
2022/01/12 11:48:48;;;;;;;63.83;17.97;;;;;;;;;;5030543;28;20042;-69
2022/01/12 11:51:15;;;;;;;65.63;17.03;;;;;;;;;;5030374;28;20335;-69
2022/01/12 11:53:44;;;;;;;69.33;18.47;;;;;;;;;;5030339;28;20049;-68
2022/01/12 11:56:11;;;;;;;67.47;18.10;;;;;;;;;;5029503;28;20053;-68
2022/01/12 11:58:49;;;;;;;78.70;20.33;;;;;;;;;;5028902;28;20041;-69
2022/01/12 12:01:15;;;;;;;64.97;16.97;;;;;;;;;;5030512;28;20100;-69
2022/01/12 12:03:41;;;;;;;64.27;20.30;;;;;;;;;;5030035;28;20523;-68
2022/01/12 12:06:20;;;;;;;59.73;18.03;;;;;;;;;;5028829;28;20055;-69
2022/01/12 12:09:04;;;;;;;59.83;17.10;;;;;;;;;;5030268;28;20405;-69
2022/01/12 12:11:32;;;;;;;52.20;14.23;;;;;;;;;;5029919;28;20163;-70
2022/01/12 12:14:02;;;;;;;65.13;16.07;;;;;;;;;;5028950;28;20075;-69
2022/01/12 12:16:29;;;;;;;62.30;15.90;;;;;;;;;;5030092;28;20057;-69
2022/01/12 12:18:56;;;;;;;68.87;16.17;;;;;;;;;;5029279;28;20060;-68
2022/01/12 12:21:22;;;;;;;87.10;20.70;;;;;;;;;;5028918;28;20042;-69
2022/01/12 12:23:48;;;;;;;84.57;19.23;;;;;;;;;;5027539;28;20049;-70
2022/01/12 12:26:16;;;;;;;76.90;17.60;;;;;;;;;;5028914;28;20048;-69
2022/01/12 12:28:47;;;;;;;98.87;23.37;;;;;;;;;;5029198;28;20073;-69
2022/01/12 12:31:20;;;;;;;94.50;21.13;;;;;;;;;;5027510;28;20072;-69
2022/01/12 12:33:46;;;;;;;96.88;18.27;;;;;;;;;;5027141;28;20053;-68
2022/01/12 12:36:14;;;;;;;84.57;16.10;;;;;;;;;;5026359;28;20045;-69
2022/01/12 12:38:40;;;;;;;130.23;22.70;;;;;;;;;;5028719;28;20064;-68
2022/01/12 12:41:06;;;;;;;233.13;32.23;;;;;;;;;;5026405;28;20038;-69
2022/01/12 12:43:35;;;;;;;215.07;32.40;;;;;;;;;;5027923;28;20045;-69
2022/01/12 12:46:05;;;;;;;167.13;26.50;;;;;;;;;;5027007;28;20818;-68
2022/01/12 12:48:33;;;;;;;423.63;75.90;;;;;;;;;;5028246;28;20411;-69
2022/01/12 12:51:00;;;;;;;114.73;20.77;;;;;;;;;;5028190;28;20057;-68
2022/01/12 12:53:27;;;;;;;100.60;17.53;;;;;;;;;;5027409;28;20053;-68
2022/01/12 12:55:53;;;;;;;87.80;19.37;;;;;;;;;;5027839;28;20045;-69
2022/01/12 12:58:19;;;;;;;83.80;19.00;;;;;;;;;;5026719;28;20500;-68
2022/01/12 13:00:45;;;;;;;117.93;20.07;;;;;;;;;;5026457;28;20210;-69
2022/01/12 13:03:11;;;;;;;127.03;21.60;;;;;;;;;;5027900;28;20107;-69
2022/01/12 13:05:43;;;;;;;112.30;21.37;;;;;;;;;;5029046;28;20089;-69
2022/01/12 13:08:10;;;;;;;139.67;24.93;;;;;;;;;;5027999;28;20407;-69
2022/01/12 13:10:36;;;;;;;160.03;27.47;;;;;;;;;;5028737;28;20045;-69
2022/01/12 13:13:04;;;;;;;124.33;22.57;;;;;;;;;;5028624;28;20132;-70
2022/01/12 13:15:41;;;;;;;109.83;22.97;;;;;;;;;;5027563;28;20057;-68
2022/01/12 13:18:10;;;;;;;133.73;25.80;;;;;;;;;;5028092;28;20110;-66
2022/01/12 13:23:23;;;;;;;113.60;24.63;;;;;;;;;;5028905;28;20061;-67
2022/01/12 13:25:53;;;;;;;155.57;28.23;;;;;;;;;;5028895;28;20099;-68
2022/01/12 13:28:19;;;;;;;73.47;20.40;;;;;;;;;;5028258;28;20562;-67
2022/01/12 13:30:50;;;;;;;103.17;24.87;;;;;;;;;;5028608;28;20128;-68
2022/01/12 13:33:24;;;;;;;109.40;23.77;;;;;;;;;;5028276;28;20158;-68
2022/01/12 13:35:50;;;;;;;83.77;20.13;;;;;;;;;;5028458;28;20132;-68
2022/01/12 13:38:23;;;;;;;132.03;24.77;;;;;;;;;;5028471;28;20533;-68
2022/01/12 13:40:50;;;;;;;118.77;24.87;;;;;;;;;;5027162;28;20049;-68
2022/01/12 13:43:19;;;;;;;96.67;22.40;;;;;;;;;;5028471;28;20057;-68
2022/01/12 13:45:48;;;;;;;110.90;22.60;;;;;;;;;;5027796;28;20061;-67
2022/01/12 13:48:21;;;;;;;90.30;19.07;;;;;;;;;;5028101;28;20495;-68
2022/01/12 13:50:56;;;;;;;98.97;20.17;;;;;;;;;;5026999;28;20056;-67
2022/01/12 13:53:32;;;;;;;114.10;23.07;;;;;;;;;;5028533;28;20073;-68
2022/01/12 13:55:58;;;;;;;114.10;23.43;;;;;;;;;;5028299;28;20069;-67
2022/01/12 13:58:28;;;;;;;108.43;21.60;;;;;;;;;;5028650;28;20052;-68
2022/01/12 14:01:10;;;;;;;103.97;19.30;;;;;;;;;;5028453;28;20504;-68
2022/01/12 14:03:46;;;;;;;89.50;18.27;;;;;;;;;;5028039;28;20049;-68
2022/01/12 14:06:15;;;;;;;90.83;20.07;;;;;;;;;;5028512;28;20056;-68
2022/01/12 14:08:51;;;;;;;102.63;21.50;;;;;;;;;;5028634;28;20534;-69
2022/01/12 14:11:18;;;;;;;133.00;23.70;;;;;;;;;;5028119;28;20124;-69
2022/01/12 14:13:44;;;;;;;134.50;23.67;;;;;;;;;;5028050;28;20115;-68
2022/01/12 14:16:10;;;;;;;82.77;18.77;;;;;;;;;;5026285;28;20050;-67
2022/01/12 14:18:37;;;;;;;103.33;20.97;;;;;;;;;;5028394;28;20053;-68
2022/01/12 14:21:16;;;;;;;75.07;16.83;;;;;;;;;;5028407;28;20077;-68
2022/01/12 14:23:42;;;;;;;111.13;21.60;;;;;;;;;;5028236;28;20128;-68
2022/01/12 14:26:18;;;;;;;110.33;21.13;;;;;;;;;;5026376;28;20054;-68
2022/01/12 14:28:45;;;;;;;147.90;24.40;;;;;;;;;;5026459;28;20053;-68
2022/01/12 14:31:10;;;;;;;173.80;26.10;;;;;;;;;;5028300;28;20054;-68
2022/01/12 14:33:36;;;;;;;179.30;27.97;;;;;;;;;;5028239;28;20049;-68
2022/01/12 14:36:03;;;;;;;161.30;27.13;;;;;;;;;;5028104;28;20643;-68
2022/01/12 14:38:29;;;;;;;151.10;26.23;;;;;;;;;;5027914;28;20124;-68
2022/01/12 14:40:55;;;;;;;116.53;22.73;;;;;;;;;;5026318;28;20128;-68
2022/01/12 14:43:25;;;;;;;131.70;24.40;;;;;;;;;;5026442;28;20049;-69
2022/01/12 14:45:51;;;;;;;132.77;24.57;;;;;;;;;;5026463;28;20136;-68
2022/01/12 14:48:17;;;;;;;140.63;26.03;;;;;;;;;;5026853;28;20447;-68
2022/01/12 14:50:44;;;;;;;152.80;27.13;;;;;;;;;;5027750;28;20128;-68
2022/01/12 14:53:11;;;;;;;158.97;28.73;;;;;;;;;;5027682;28;20045;-68
2022/01/12 14:55:37;;;;;;;161.50;28.57;;;;;;;;;;5024966;28;20503;-68
2022/01/12 14:58:04;;;;;;;478.43;89.07;;;;;;;;;;5029200;28;20087;-68
2022/01/12 15:00:34;;;;;;;66.03;16.33;;;;;;;;;;5030164;28;20095;-68
2022/01/12 15:03:01;;;;;;;99.67;20.03;;;;;;;;;;5031166;28;20049;-69
2022/01/12 15:05:29;;;;;;;83.93;17.90;;;;;;;;;;5031149;28;20041;-68
2022/01/12 15:07:56;;;;;;;105.17;22.03;;;;;;;;;;5031237;28;20085;-69
2022/01/12 15:10:22;;;;;;;101.97;20.67;;;;;;;;;;5030590;28;20057;-68
2022/01/12 15:12:53;;;;;;;107.07;21.87;;;;;;;;;;5031277;28;20049;-68
2022/01/12 15:15:19;;;;;;;111.80;21.50;;;;;;;;;;5031087;28;20448;-68
2022/01/12 15:17:45;;;;;;;100.00;24.13;;;;;;;;;;5029432;28;20571;-68
2022/01/12 15:20:12;;;;;;;84.40;19.60;;;;;;;;;;5030788;28;20045;-68
2022/01/12 15:22:40;;;;;;;98.87;19.53;;;;;;;;;;5030023;28;20526;-68
2022/01/12 15:25:06;;;;;;;121.80;21.40;;;;;;;;;;5029424;28;20077;-68